メインページ
METAR-TAF:

METAR-TAF

空港 :

ハノイ, ベトナム

ノイバイ国際空港

緯度: 21-01N, 経度: 105-48E, 海抜: 6m

現時点の気象観測

当レポートは34分前の16:00(UTC)に作成
の風 3kt、東/北東から東/南東の間で変化する
気温 27°C
湿度 94%
気圧 1004 hPa
視程10km以上
高度1500ftの雲はほとんどない

METAR: VVNB 221600Z 10003KT 060V120 9999 FEW015 27/26 Q1004 NOSIG

時間: 23:34 (16:34 UTC)

予報

当レポートは3時間34分前の13:00(UTC)に作成
予報は22日の 13時(UTC)から 23日の 12時(UTC)まで有効
の風 7kt
視程: 8000m
高度2300ftの雲は散在している

TAF: VVNB 221300Z 2213/2312 09007KT 8000 SCT023

4,000以上の空港の気象観測と天気予報(METAR報とTAF報)

利用可能な観測所は地図上に黄色い丸と赤い丸で示す。

丸の上にカーソルを重ねると観測所名を参照できる。

次にクリックすると気象観測と天気予報を参照できる。

マップの切り替え:黒色「×」印の緑ボタンをクリックして拡大、「-」印の緑ボタンをクリックして縮小、緑色の三角印をクリックして隣りの地図に切り替え


METAR-TAF: